createdAt,value
2022-11-02T00:04:40.649Z,66.40
2022-11-02T00:14:38.135Z,65.80
2022-11-02T00:24:35.894Z,65.70
2022-11-02T00:34:33.246Z,65.10
2022-11-02T00:44:30.682Z,66.90
2022-11-02T00:54:28.718Z,67.90
2022-11-02T01:04:26.979Z,68.20
2022-11-02T01:14:24.648Z,68.00
2022-11-02T01:24:22.209Z,67.00
2022-11-02T01:34:20.629Z,65.60
2022-11-02T01:44:32.268Z,65.10
2022-11-02T01:54:39.869Z,64.00
2022-11-02T02:04:37.909Z,64.90
2022-11-02T02:14:36.130Z,65.50
2022-11-02T02:25:13.495Z,66.00
2022-11-02T02:35:24.484Z,67.30
2022-11-02T02:45:42.853Z,69.80
2022-11-02T02:55:45.251Z,71.50
2022-11-02T03:05:43.495Z,74.50
2022-11-02T03:15:44.586Z,74.40
2022-11-02T03:25:51.582Z,74.50
2022-11-02T03:35:57.260Z,74.90
2022-11-02T03:46:01.569Z,74.10
2022-11-02T03:56:08.574Z,73.30
2022-11-02T04:06:08.371Z,72.90
2022-11-02T04:16:06.491Z,75.60
2022-11-02T04:26:05.816Z,77.40
2022-11-02T04:36:14.168Z,77.40
2022-11-02T04:46:12.246Z,76.80
2022-11-02T04:56:10.069Z,77.10
2022-11-02T05:06:09.310Z,76.50
2022-11-02T05:16:07.666Z,78.00
2022-11-02T05:26:07.694Z,83.40
2022-11-02T05:36:06.224Z,82.10
2022-11-02T05:46:06.251Z,81.60
2022-11-02T05:56:06.090Z,78.90
2022-11-02T06:06:09.989Z,79.50
2022-11-02T06:16:11.981Z,80.40
2022-11-02T06:26:11.167Z,81.30
2022-11-02T06:36:09.087Z,84.40
2022-11-02T06:46:06.940Z,85.10
2022-11-02T06:56:04.456Z,86.10
2022-11-02T07:06:02.270Z,85.70
2022-11-02T07:15:59.777Z,86.00
2022-11-02T07:25:57.120Z,87.10
2022-11-02T07:35:54.571Z,88.60
2022-11-02T07:45:51.987Z,87.40
2022-11-02T07:55:49.486Z,84.40
2022-11-02T08:05:47.035Z,81.70
2022-11-02T08:15:44.587Z,76.30
2022-11-02T08:25:43.459Z,74.10
2022-11-02T08:35:41.022Z,73.30
2022-11-02T08:55:59.374Z,65.20
2022-11-02T09:06:02.382Z,52.50
2022-11-02T09:16:00.697Z,45.50
2022-11-02T09:25:58.879Z,48.20
2022-11-02T09:35:56.697Z,41.70
2022-11-02T09:45:59.768Z,40.60
2022-11-02T09:56:01.647Z,39.10
2022-11-02T10:06:05.182Z,39.00
2022-11-02T10:16:15.531Z,29.50
2022-11-02T10:26:20.064Z,30.00
2022-11-02T10:36:34.362Z,28.30
2022-11-02T10:46:38.568Z,28.30
2022-11-02T10:56:35.996Z,25.60
2022-11-02T11:06:44.172Z,28.10
2022-11-02T11:16:43.345Z,27.20
2022-11-02T11:26:40.808Z,25.10
2022-11-02T11:36:38.219Z,24.20
2022-11-02T11:46:49.215Z,24.40
2022-11-02T11:56:47.993Z,24.60
2022-11-02T12:07:07.031Z,26.10
2022-11-02T12:17:48.470Z,26.30
2022-11-02T12:28:00.816Z,23.10
2022-11-02T12:38:04.683Z,20.30
2022-11-02T12:48:05.825Z,22.00
2022-11-02T12:58:14.079Z,22.50
2022-11-02T13:08:25.373Z,23.00
2022-11-02T13:18:29.561Z,23.40
2022-11-02T13:28:41.687Z,21.50
2022-11-02T13:38:47.098Z,21.50
2022-11-02T13:49:01.126Z,22.40
2022-11-02T13:59:09.525Z,21.40
2022-11-02T14:09:09.708Z,19.80
2022-11-02T14:19:20.615Z,18.40
2022-11-02T14:29:42.388Z,18.10
2022-11-02T14:40:11.049Z,19.40
2022-11-02T14:50:11.370Z,19.20
2022-11-02T15:00:31.068Z,19.80
2022-11-02T15:10:31.590Z,18.80
2022-11-02T15:20:34.516Z,19.30
2022-11-02T15:30:33.016Z,22.70
2022-11-02T15:41:17.905Z,30.30
2022-11-02T15:51:50.355Z,36.70
2022-11-02T16:02:23.332Z,37.70
2022-11-02T16:12:24.938Z,41.60
2022-11-02T16:22:26.774Z,45.20
2022-11-02T16:32:25.538Z,50.30
2022-11-02T16:42:24.689Z,50.70
2022-11-02T16:52:26.046Z,52.50
2022-11-02T17:02:42.819Z,52.40
2022-11-02T17:12:43.909Z,55.00
2022-11-02T17:22:57.867Z,56.30
2022-11-02T17:32:55.900Z,57.70
2022-11-02T17:42:59.829Z,58.20
2022-11-02T17:52:58.895Z,58.00
2022-11-02T18:02:58.479Z,60.40
2022-11-02T18:12:55.979Z,60.70
2022-11-02T18:22:54.130Z,62.10
2022-11-02T18:32:51.696Z,62.40
2022-11-02T18:42:49.266Z,62.70
2022-11-02T18:52:49.483Z,63.40
2022-11-02T19:02:47.031Z,63.50
2022-11-02T19:12:44.408Z,65.00
2022-11-02T19:22:41.937Z,65.30
2022-11-02T19:32:39.473Z,66.80
2022-11-02T19:42:37.008Z,67.10
2022-11-02T19:52:35.269Z,66.00
2022-11-02T20:02:32.661Z,66.30
2022-11-02T20:12:33.017Z,67.10
2022-11-02T20:22:30.406Z,68.60
2022-11-02T20:32:27.775Z,69.40
2022-11-02T20:42:26.025Z,69.50
2022-11-02T20:52:23.690Z,72.50
2022-11-02T21:02:23.498Z,79.60
2022-11-02T21:12:39.581Z,83.60
2022-11-02T21:22:37.211Z,83.80
2022-11-02T21:32:34.638Z,88.70
2022-11-02T21:42:32.186Z,87.40
2022-11-02T21:52:29.976Z,88.30
2022-11-02T22:02:27.509Z,88.90
2022-11-02T22:12:43.360Z,86.30
2022-11-02T22:22:40.847Z,84.70
2022-11-02T22:32:38.251Z,82.90
2022-11-02T22:42:39.735Z,83.60
2022-11-02T22:52:39.944Z,83.90
2022-11-02T23:02:37.310Z,85.70
2022-11-02T23:12:34.646Z,82.80
2022-11-02T23:22:32.063Z,81.10
2022-11-02T23:32:29.548Z,84.60
2022-11-02T23:42:27.186Z,83.10
2022-11-02T23:52:42.939Z,81.80
